createdAt,value
2022-11-29T00:01:40.456Z,98504.16
2022-11-29T00:04:08.589Z,98501.69
2022-11-29T00:06:36.449Z,98504.28
2022-11-29T00:09:11.446Z,98509.66
2022-11-29T00:11:59.087Z,98505.06
2022-11-29T00:14:28.157Z,98504.16
2022-11-29T00:17:01.698Z,98507.75
2022-11-29T00:19:33.194Z,98502.66
2022-11-29T00:22:01.858Z,98502.81
2022-11-29T00:24:36.797Z,98504.16
2022-11-29T00:27:04.625Z,98500.22
2022-11-29T00:29:34.111Z,98504.16
2022-11-29T00:32:01.765Z,98506.69
2022-11-29T00:34:31.449Z,98502.38
2022-11-29T00:36:59.088Z,98503.00
2022-11-29T00:39:26.972Z,98498.06
2022-11-29T00:41:55.235Z,98498.63
2022-11-29T00:44:23.019Z,98495.88
2022-11-29T00:46:53.390Z,98497.34
2022-11-29T00:49:21.253Z,98495.59
2022-11-29T00:51:48.967Z,98495.44
2022-11-29T00:54:17.850Z,98489.94
2022-11-29T00:56:45.366Z,98496.91
2022-11-29T00:59:13.008Z,98504.59
2022-11-29T01:01:40.744Z,98503.44
2022-11-29T01:04:08.540Z,98503.16
2022-11-29T01:06:36.219Z,98505.53
2022-11-29T01:09:05.371Z,98506.03
2022-11-29T01:11:33.390Z,98500.56
2022-11-29T01:14:02.805Z,98501.31
2022-11-29T01:16:32.420Z,98503.78
2022-11-29T01:19:00.472Z,98493.13
2022-11-29T01:21:28.393Z,98501.00
2022-11-29T01:23:56.290Z,98510.09
2022-11-29T01:26:27.842Z,98508.66
2022-11-29T01:28:57.108Z,98511.00
2022-11-29T01:31:38.091Z,98518.72
2022-11-29T01:34:11.920Z,98518.03
2022-11-29T01:36:39.482Z,98512.81
2022-11-29T01:39:07.801Z,98514.69
2022-11-29T01:41:37.787Z,98513.91
2022-11-29T01:44:14.163Z,98515.50
2022-11-29T01:46:45.490Z,98513.78
2022-11-29T01:49:21.666Z,98506.63
2022-11-29T01:51:55.700Z,98511.13
2022-11-29T01:54:23.817Z,98510.41
2022-11-29T01:56:53.040Z,98506.69
2022-11-29T01:59:24.476Z,98510.56
2022-11-29T02:01:53.212Z,98503.88
2022-11-29T02:04:21.196Z,98508.97
2022-11-29T02:06:49.127Z,98504.59
2022-11-29T02:09:24.086Z,98494.28
2022-11-29T02:12:19.394Z,98505.59
2022-11-29T02:15:02.221Z,98501.25
2022-11-29T02:18:12.313Z,98506.63
2022-11-29T02:21:10.258Z,98508.09
2022-11-29T02:24:02.396Z,98510.44
2022-11-29T02:27:14.280Z,98505.59
2022-11-29T02:30:07.000Z,98510.13
2022-11-29T02:33:01.886Z,98506.63
2022-11-29T02:36:03.178Z,98509.09
2022-11-29T02:39:06.369Z,98512.00
2022-11-29T02:41:46.927Z,98511.56
2022-11-29T02:45:00.697Z,98515.06
2022-11-29T02:47:51.572Z,98517.34
2022-11-29T02:50:49.863Z,98520.16
2022-11-29T02:53:53.751Z,98509.69
2022-11-29T02:57:04.331Z,98515.06
2022-11-29T02:59:47.827Z,98515.06
2022-11-29T03:02:48.295Z,98519.59
2022-11-29T03:05:49.401Z,98513.19
2022-11-29T03:08:59.804Z,98513.19
2022-11-29T03:12:03.380Z,98516.38
2022-11-29T03:14:56.493Z,98516.38
2022-11-29T03:18:05.458Z,98523.63
2022-11-29T03:20:45.488Z,98525.53
2022-11-29T03:23:49.372Z,98529.47
2022-11-29T03:26:30.275Z,98527.78
2022-11-29T03:29:07.401Z,98522.41
2022-11-29T03:31:52.329Z,98525.09
2022-11-29T03:35:09.534Z,98534.41
2022-11-29T03:37:55.362Z,98531.19
2022-11-29T03:41:10.038Z,98526.09
2022-11-29T03:43:55.858Z,98527.91
2022-11-29T03:46:52.960Z,98526.31
2022-11-29T03:49:25.392Z,98537.16
2022-11-29T03:52:14.462Z,98544.00
2022-11-29T03:54:48.135Z,98537.00
2022-11-29T03:57:30.159Z,98539.63
2022-11-29T04:00:12.637Z,98539.13
2022-11-29T04:02:58.132Z,98545.78
2022-11-29T04:05:56.327Z,98537.75
2022-11-29T04:09:04.670Z,98540.22
2022-11-29T04:12:06.213Z,98536.59
2022-11-29T04:15:15.429Z,98541.16
2022-11-29T04:18:31.758Z,98541.59
2022-11-29T04:21:20.346Z,98543.34
2022-11-29T04:24:39.851Z,98552.56
2022-11-29T04:27:22.549Z,98553.00
2022-11-29T04:30:17.905Z,98556.00
2022-11-29T04:33:03.668Z,98556.22
2022-11-29T04:36:19.532Z,98550.69
2022-11-29T04:39:28.797Z,98559.97
2022-11-29T04:42:33.023Z,98559.97
2022-11-29T04:45:49.323Z,98565.50
2022-11-29T04:48:43.665Z,98567.84
2022-11-29T04:51:30.635Z,98562.53
2022-11-29T04:54:24.352Z,98566.97
2022-11-29T04:57:07.751Z,98560.41
2022-11-29T05:00:11.239Z,98560.56
2022-11-29T05:03:00.330Z,98566.22
2022-11-29T05:05:49.652Z,98563.09
2022-11-29T05:08:36.517Z,98571.31
2022-11-29T05:11:38.156Z,98568.56
2022-11-29T05:14:14.198Z,98575.38
2022-11-29T05:17:19.033Z,98573.50
2022-11-29T05:19:58.665Z,98576.13
2022-11-29T05:23:24.859Z,98573.94
2022-11-29T05:26:06.155Z,98573.50
2022-11-29T05:29:06.519Z,98580.63
2022-11-29T05:32:06.219Z,98581.06
2022-11-29T05:34:49.084Z,98583.66
2022-11-29T05:37:22.808Z,98587.31
2022-11-29T05:40:22.494Z,98593.06
2022-11-29T05:43:36.930Z,98593.88
2022-11-29T05:46:19.886Z,98589.78
2022-11-29T05:49:11.704Z,98585.94
2022-11-29T05:52:21.838Z,98588.25
2022-11-29T05:55:28.768Z,98600.13
2022-11-29T05:58:02.929Z,98594.53
2022-11-29T06:01:07.039Z,98599.03
2022-11-29T06:04:03.056Z,98599.03
2022-11-29T06:06:52.072Z,98599.34
2022-11-29T06:09:37.773Z,98602.03
2022-11-29T06:12:21.061Z,98601.31
2022-11-29T06:14:57.011Z,98611.19
2022-11-29T06:17:57.981Z,98612.94
2022-11-29T06:21:00.102Z,98617.66
2022-11-29T06:23:52.296Z,98617.66
2022-11-29T06:27:00.387Z,98620.66
2022-11-29T06:29:58.870Z,98632.84
2022-11-29T06:32:50.570Z,98625.56
2022-11-29T06:35:52.427Z,98637.06
2022-11-29T06:38:30.782Z,98641.97
2022-11-29T06:41:02.156Z,98638.22
2022-11-29T06:43:31.222Z,98648.69
2022-11-29T06:46:11.222Z,98643.31
2022-11-29T06:49:01.818Z,98641.56
2022-11-29T06:51:49.059Z,98646.81
2022-11-29T06:54:31.811Z,98643.31
2022-11-29T06:57:22.263Z,98649.13
2022-11-29T06:59:58.703Z,98644.69
2022-11-29T07:02:52.486Z,98650.47
2022-11-29T07:05:33.754Z,98653.50
2022-11-29T07:08:10.569Z,98653.38
2022-11-29T07:10:41.053Z,98658.28
2022-11-29T07:13:15.592Z,98659.78
2022-11-29T07:16:04.858Z,98666.91
2022-11-29T07:19:12.036Z,98666.91
2022-11-29T07:22:15.069Z,98672.09
2022-11-29T07:24:50.035Z,98674.19
2022-11-29T07:27:50.327Z,98673.03
2022-11-29T07:30:24.213Z,98677.34
2022-11-29T07:33:10.315Z,98675.53
2022-11-29T07:36:18.806Z,98684.25
2022-11-29T07:39:07.984Z,98675.53
2022-11-29T07:42:02.801Z,98682.50
2022-11-29T07:44:39.978Z,98683.06
2022-11-29T07:47:09.350Z,98683.06
2022-11-29T07:49:37.004Z,98679.16
2022-11-29T07:52:04.601Z,98687.03
2022-11-29T07:54:32.247Z,98684.03
2022-11-29T07:56:59.849Z,98692.84
2022-11-29T07:59:27.460Z,98693.72
2022-11-29T08:01:56.154Z,98689.97
2022-11-29T08:04:23.791Z,98692.84
2022-11-29T08:06:51.821Z,98690.94
2022-11-29T08:09:20.010Z,98693.50
2022-11-29T08:11:48.829Z,98696.72
2022-11-29T08:14:42.226Z,98690.19
2022-11-29T08:17:10.325Z,98699.63
2022-11-29T08:19:38.115Z,98703.13
2022-11-29T08:22:05.854Z,98699.97
2022-11-29T08:24:33.434Z,98705.47
2022-11-29T08:27:01.544Z,98704.78
2022-11-29T08:29:29.270Z,98708.31
2022-11-29T08:31:56.908Z,98704.44
2022-11-29T08:34:25.489Z,98716.13
2022-11-29T08:36:56.526Z,98712.22
2022-11-29T08:39:24.423Z,98716.69
2022-11-29T08:42:00.485Z,98713.56
2022-11-29T08:44:28.365Z,98720.03
2022-11-29T08:47:14.615Z,98713.72
2022-11-29T08:50:01.427Z,98714.94
2022-11-29T08:52:58.039Z,98722.09
2022-11-29T08:55:32.585Z,98722.69
2022-11-29T08:58:11.117Z,98715.81
2022-11-29T09:00:39.892Z,98726.25
2022-11-29T09:03:27.033Z,98725.16
2022-11-29T09:05:55.291Z,98722.69
2022-11-29T09:08:23.344Z,98729.63
2022-11-29T09:10:51.247Z,98735.09
2022-11-29T09:13:19.301Z,98734.38
2022-11-29T09:15:47.378Z,98729.34
2022-11-29T09:18:15.068Z,98743.94
2022-11-29T09:20:44.130Z,98739.84
2022-11-29T09:23:13.092Z,98738.44
2022-11-29T09:25:41.033Z,98737.50
2022-11-29T09:28:09.111Z,98736.81
2022-11-29T09:30:38.009Z,98742.97
2022-11-29T09:33:05.845Z,98741.69
2022-11-29T09:35:35.033Z,98747.03
2022-11-29T09:38:02.563Z,98751.88
2022-11-29T09:41:06.367Z,98756.13
2022-11-29T09:43:46.505Z,98754.59
2022-11-29T09:46:45.658Z,98753.31
2022-11-29T09:49:52.225Z,98754.72
2022-11-29T09:56:29.171Z,98762.44
2022-11-29T09:59:06.348Z,98756.97
2022-11-29T10:01:42.685Z,98761.09
2022-11-29T10:04:23.111Z,98758.69
2022-11-29T10:07:18.147Z,98762.78
2022-11-29T10:10:00.920Z,98764.00
2022-11-29T10:12:38.389Z,98772.03
2022-11-29T10:15:17.837Z,98767.84
2022-11-29T10:17:55.755Z,98768.81
2022-11-29T10:20:28.221Z,98767.00
2022-11-29T10:23:05.233Z,98775.16
2022-11-29T10:25:46.860Z,98769.75
2022-11-29T10:28:20.628Z,98775.34
2022-11-29T10:30:48.935Z,98771.63
2022-11-29T10:33:26.668Z,98764.72
2022-11-29T10:36:00.612Z,98762.94
2022-11-29T10:38:31.175Z,98758.44
2022-11-29T10:41:10.491Z,98761.13
2022-11-29T10:43:38.419Z,98761.44
2022-11-29T10:46:15.275Z,98761.13
2022-11-29T10:48:43.327Z,98759.53
2022-11-29T10:51:18.067Z,98758.09
2022-11-29T10:53:46.683Z,98762.63
2022-11-29T10:56:37.511Z,98755.41
2022-11-29T10:59:09.133Z,98757.97
2022-11-29T11:01:41.821Z,98755.34
2022-11-29T11:04:29.130Z,98750.91
2022-11-29T11:07:01.243Z,98763.91
2022-11-29T11:09:42.371Z,98751.78
2022-11-29T11:12:16.193Z,98744.25
2022-11-29T11:14:45.558Z,98743.25
2022-11-29T11:17:33.856Z,98749.81
2022-11-29T11:20:22.849Z,98746.38
2022-11-29T11:23:23.840Z,98740.13
2022-11-29T11:26:03.196Z,98731.63
2022-11-29T11:28:46.945Z,98739.41
2022-11-29T11:31:15.961Z,98753.06
2022-11-29T11:33:45.963Z,98745.47
2022-11-29T11:36:27.427Z,98753.06
2022-11-29T11:39:12.222Z,98745.91
2022-11-29T11:42:02.504Z,98745.59
2022-11-29T11:45:01.092Z,98758.78
2022-11-29T11:47:32.687Z,98755.91
2022-11-29T11:50:03.598Z,98755.59
2022-11-29T11:52:50.035Z,98757.50
2022-11-29T11:55:21.139Z,98757.03
2022-11-29T11:58:12.210Z,98766.53
2022-11-29T12:01:05.302Z,98756.47
2022-11-29T12:03:45.340Z,98763.25
2022-11-29T12:06:43.144Z,98761.81
2022-11-29T12:09:19.503Z,98767.06
2022-11-29T12:12:24.397Z,98764.16
2022-11-29T12:15:06.281Z,98765.69
2022-11-29T12:17:55.292Z,98771.31
2022-11-29T12:21:19.891Z,98777.03
2022-11-29T12:24:15.752Z,98781.63
2022-11-29T12:26:59.528Z,98781.63
2022-11-29T12:29:32.120Z,98787.16
2022-11-29T12:32:14.948Z,98779.22
2022-11-29T12:35:34.967Z,98783.69
2022-11-29T12:38:37.711Z,98783.88
2022-11-29T12:41:29.608Z,98793.66
2022-11-29T12:44:37.315Z,98789.53
2022-11-29T12:47:37.895Z,98786.53
2022-11-29T12:50:08.856Z,98791.53
2022-11-29T12:53:22.550Z,98798.03
2022-11-29T12:56:22.306Z,98792.66
2022-11-29T12:59:12.336Z,98803.16
2022-11-29T13:02:07.561Z,98797.13
2022-11-29T13:04:59.962Z,98795.78
2022-11-29T13:07:47.350Z,98798.22
2022-11-29T13:11:11.891Z,98802.44
2022-11-29T13:13:43.537Z,98800.72
2022-11-29T13:16:23.987Z,98799.25
2022-11-29T13:19:22.621Z,98810.94
2022-11-29T13:22:06.549Z,98811.34
2022-11-29T13:24:50.112Z,98804.94
2022-11-29T13:27:51.646Z,98802.63
2022-11-29T13:30:19.929Z,98810.44
2022-11-29T13:32:59.978Z,98811.44
2022-11-29T13:35:40.421Z,98815.38
2022-11-29T13:38:19.200Z,98817.94
2022-11-29T13:41:42.704Z,98810.34
2022-11-29T13:44:34.034Z,98821.03
2022-11-29T13:47:14.953Z,98822.97
2022-11-29T13:50:04.324Z,98817.38
2022-11-29T13:52:44.446Z,98816.53
2022-11-29T13:55:12.143Z,98820.50
2022-11-29T13:58:15.586Z,98822.84
2022-11-29T14:00:44.176Z,98828.38
2022-11-29T14:03:24.029Z,98832.19
2022-11-29T14:06:03.854Z,98837.69
2022-11-29T14:11:50.089Z,98839.75
2022-11-29T14:14:49.844Z,98840.53
2022-11-29T14:17:48.463Z,98842.34
2022-11-29T14:20:25.823Z,98839.88
2022-11-29T14:23:06.079Z,98842.97
2022-11-29T14:25:51.549Z,98844.34
2022-11-29T14:28:22.922Z,98849.22
2022-11-29T14:30:57.291Z,98846.28
2022-11-29T14:33:59.150Z,98847.53
2022-11-29T14:36:53.966Z,98851.53
2022-11-29T14:39:56.248Z,98852.19
2022-11-29T14:42:29.048Z,98846.56
2022-11-29T14:45:04.858Z,98854.19
2022-11-29T14:47:38.200Z,98849.06
2022-11-29T14:50:10.935Z,98852.13
2022-11-29T14:52:51.605Z,98847.25
2022-11-29T14:55:25.036Z,98860.63
2022-11-29T14:58:06.281Z,98864.47
2022-11-29T15:00:48.957Z,98866.09
2022-11-29T15:03:16.440Z,98870.88
2022-11-29T15:05:48.975Z,98873.06
2022-11-29T15:08:54.651Z,98866.47
2022-11-29T15:11:58.102Z,98868.63
2022-11-29T15:14:44.114Z,98875.75
2022-11-29T15:17:32.686Z,98874.38
2022-11-29T15:20:22.099Z,98876.66
2022-11-29T15:23:00.727Z,98879.75
2022-11-29T15:25:47.018Z,98883.03
2022-11-29T15:28:25.346Z,98874.53
2022-11-29T15:31:12.393Z,98884.94
2022-11-29T15:33:43.472Z,98894.28
2022-11-29T15:36:22.650Z,98890.78
2022-11-29T15:38:56.881Z,98884.47
2022-11-29T15:41:35.351Z,98896.09
2022-11-29T15:44:06.816Z,98895.81
2022-11-29T15:46:36.336Z,98899.19
2022-11-29T15:49:28.090Z,98903.47
2022-11-29T15:52:03.601Z,98902.88
2022-11-29T15:54:39.269Z,98902.28
2022-11-29T15:57:21.041Z,98915.56
2022-11-29T15:59:58.130Z,98914.13
2022-11-29T16:02:33.727Z,98906.66
2022-11-29T16:05:25.068Z,98915.72
2022-11-29T16:08:04.827Z,98921.41
2022-11-29T16:10:49.486Z,98926.00
2022-11-29T16:13:36.965Z,98931.25
2022-11-29T16:16:23.128Z,98927.41
2022-11-29T16:18:51.683Z,98924.34
2022-11-29T16:21:29.340Z,98925.28
2022-11-29T16:23:58.477Z,98923.72
2022-11-29T16:26:26.058Z,98924.91
2022-11-29T16:28:59.000Z,98934.22
2022-11-29T16:31:37.109Z,98926.63
2022-11-29T16:34:18.053Z,98944.66
2022-11-29T16:36:45.871Z,98939.41
2022-11-29T16:39:24.215Z,98933.16
2022-11-29T16:42:24.977Z,98933.69
2022-11-29T16:45:04.007Z,98937.63
2022-11-29T16:47:58.112Z,98939.84
2022-11-29T16:50:33.429Z,98942.88
2022-11-29T16:53:42.372Z,98944.91
2022-11-29T16:56:14.678Z,98945.78
2022-11-29T16:59:17.169Z,98941.41
2022-11-29T17:01:33.151Z,98936.25
2022-11-29T17:04:01.662Z,98937.97
2022-11-29T17:06:30.415Z,98946.31
2022-11-29T17:08:59.498Z,98943.53
2022-11-29T17:11:27.638Z,98951.53
2022-11-29T17:13:55.385Z,98953.84
2022-11-29T17:16:37.400Z,98938.53
2022-11-29T17:19:05.993Z,98948.06
2022-11-29T17:21:33.664Z,98941.53
2022-11-29T17:24:01.403Z,98946.16
2022-11-29T17:26:29.258Z,98945.84
2022-11-29T17:28:56.867Z,98954.06
2022-11-29T17:31:25.284Z,98958.41
2022-11-29T17:33:53.236Z,98959.28
2022-11-29T17:36:21.789Z,98960.47
2022-11-29T17:38:49.576Z,98947.53
2022-11-29T17:41:22.657Z,98964.75
2022-11-29T17:43:52.000Z,98967.44
2022-11-29T17:46:32.632Z,98967.19
2022-11-29T17:49:03.827Z,98964.06
2022-11-29T17:54:21.216Z,98964.63
2022-11-29T17:56:49.225Z,98967.63
2022-11-29T17:59:16.930Z,98966.81
2022-11-29T18:01:47.209Z,98969.63
2022-11-29T18:04:15.182Z,98969.88
2022-11-29T18:06:43.643Z,98973.44
2022-11-29T18:09:12.864Z,98978.72
2022-11-29T18:11:48.538Z,98976.88
2022-11-29T18:14:22.920Z,98977.94
2022-11-29T18:16:51.471Z,98984.28
2022-11-29T18:19:22.163Z,98984.59
2022-11-29T18:21:50.751Z,98984.41
2022-11-29T18:24:19.280Z,98986.31
2022-11-29T18:26:47.599Z,98989.19
2022-11-29T18:29:15.306Z,98989.56
2022-11-29T18:31:45.316Z,98979.81
2022-11-29T18:34:14.749Z,98995.41
2022-11-29T18:36:48.163Z,98986.59
2022-11-29T18:39:19.497Z,98993.19
2022-11-29T18:41:49.560Z,99004.97
2022-11-29T18:44:21.402Z,99010.13
2022-11-29T18:46:49.251Z,99005.44
2022-11-29T18:49:18.444Z,99006.66
2022-11-29T18:51:48.176Z,99003.72
2022-11-29T18:54:18.322Z,99005.31
2022-11-29T18:56:46.740Z,99003.47
2022-11-29T18:59:17.441Z,99000.53
2022-11-29T19:01:48.207Z,99003.22
2022-11-29T19:04:21.365Z,99003.22
2022-11-29T19:06:49.470Z,98996.22
2022-11-29T19:09:21.742Z,98999.94
2022-11-29T19:11:50.724Z,98997.09
2022-11-29T19:14:19.290Z,98998.72
2022-11-29T19:16:49.221Z,98986.06
2022-11-29T19:19:18.842Z,98990.50
2022-11-29T19:21:47.190Z,98993.06
2022-11-29T19:24:18.716Z,98988.56
2022-11-29T19:26:49.940Z,98999.34
2022-11-29T19:29:17.942Z,98999.88
2022-11-29T19:31:45.850Z,99002.97
2022-11-29T19:34:13.790Z,99002.34
2022-11-29T19:36:43.300Z,99002.59
2022-11-29T19:39:14.034Z,99002.09
2022-11-29T19:41:44.562Z,98996.84
2022-11-29T19:44:12.777Z,99003.56
2022-11-29T19:46:45.753Z,99009.84
2022-11-29T19:49:14.145Z,98999.66
2022-11-29T19:51:42.907Z,99013.00
2022-11-29T19:54:11.779Z,99016.63
2022-11-29T19:56:39.774Z,99027.28
2022-11-29T19:59:08.825Z,99027.06
2022-11-29T20:01:41.445Z,99029.88
2022-11-29T20:04:12.978Z,99017.75
2022-11-29T20:06:41.411Z,99018.88
2022-11-29T20:09:10.615Z,99011.91
2022-11-29T20:11:39.132Z,99017.38
2022-11-29T20:14:07.883Z,99018.25
2022-11-29T20:16:38.111Z,99022.13
2022-11-29T20:19:18.157Z,99019.13
2022-11-29T20:21:49.647Z,99020.78
2022-11-29T20:24:19.382Z,99028.81
2022-11-29T20:26:49.637Z,99027.38
2022-11-29T20:29:19.196Z,99024.63
2022-11-29T20:31:50.700Z,99029.44
2022-11-29T20:34:20.710Z,99023.06
2022-11-29T20:37:07.395Z,99020.88
2022-11-29T20:39:58.261Z,99025.06
2022-11-29T20:43:07.270Z,99022.69
2022-11-29T20:45:38.785Z,99024.13
2022-11-29T20:48:22.540Z,99025.88
2022-11-29T20:51:02.180Z,99033.75
2022-11-29T20:53:43.691Z,99026.00
2022-11-29T20:56:12.368Z,99032.78
2022-11-29T20:58:40.711Z,99038.75
2022-11-29T21:01:08.635Z,99044.59
2022-11-29T21:03:36.552Z,99048.81
2022-11-29T21:06:06.577Z,99045.03
2022-11-29T21:08:35.175Z,99049.22
2022-11-29T21:11:48.801Z,99050.28
2022-11-29T21:14:24.964Z,99040.59
2022-11-29T21:16:53.235Z,99041.16
2022-11-29T21:19:25.386Z,99041.16
2022-11-29T21:22:07.891Z,99036.72
2022-11-29T21:24:57.204Z,99034.03
2022-11-29T21:27:33.116Z,99038.31
2022-11-29T21:30:05.628Z,99040.81
2022-11-29T21:32:33.975Z,99031.03
2022-11-29T21:35:01.626Z,99037.06
2022-11-29T21:37:31.217Z,99032.84
2022-11-29T21:39:59.120Z,99032.72
2022-11-29T21:42:27.225Z,99037.91
2022-11-29T21:45:00.960Z,99038.03
2022-11-29T21:47:28.599Z,99034.47
2022-11-29T21:49:56.418Z,99037.91
2022-11-29T21:52:24.196Z,99042.16
2022-11-29T21:54:51.792Z,99045.34
2022-11-29T21:57:19.656Z,99044.78
2022-11-29T21:59:47.597Z,99044.44
2022-11-29T22:02:15.460Z,99048.69
2022-11-29T22:04:49.656Z,99055.56
2022-11-29T22:07:19.003Z,99051.69
2022-11-29T22:09:46.779Z,99060.06
2022-11-29T22:12:33.248Z,99057.38
2022-11-29T22:15:01.990Z,99058.06
2022-11-29T22:17:29.618Z,99054.81
2022-11-29T22:19:57.416Z,99059.50
2022-11-29T22:22:28.084Z,99056.63
2022-11-29T22:25:03.048Z,99062.81
2022-11-29T22:27:32.240Z,99061.59
2022-11-29T22:29:59.984Z,99055.22
2022-11-29T22:32:27.703Z,99060.84
2022-11-29T22:34:55.266Z,99064.22
2022-11-29T22:37:22.872Z,99063.91
2022-11-29T22:39:50.521Z,99057.06
2022-11-29T22:42:18.277Z,99058.81
2022-11-29T22:44:46.135Z,99052.19
2022-11-29T22:47:13.923Z,99049.34
2022-11-29T22:49:41.512Z,99053.94
2022-11-29T22:52:09.364Z,99060.56
2022-11-29T22:54:37.147Z,99055.25
2022-11-29T22:57:04.888Z,99059.94
2022-11-29T22:59:32.731Z,99065.53
2022-11-29T23:02:00.622Z,99060.41
2022-11-29T23:04:28.404Z,99063.09
2022-11-29T23:06:56.272Z,99061.47
2022-11-29T23:09:23.926Z,99065.00
2022-11-29T23:11:56.196Z,99064.06
2022-11-29T23:14:24.598Z,99064.22
2022-11-29T23:16:53.079Z,99070.41
2022-11-29T23:19:21.157Z,99065.91
2022-11-29T23:21:48.764Z,99064.88
2022-11-29T23:24:16.670Z,99070.25
2022-11-29T23:26:47.091Z,99070.47
2022-11-29T23:29:18.324Z,99071.63
2022-11-29T23:31:46.916Z,99074.59
2022-11-29T23:34:14.879Z,99075.16
2022-11-29T23:36:44.791Z,99074.19
2022-11-29T23:39:16.175Z,99068.13
2022-11-29T23:41:44.233Z,99068.91
2022-11-29T23:44:12.308Z,99067.44
2022-11-29T23:46:40.394Z,99064.56
2022-11-29T23:49:08.091Z,99067.44
2022-11-29T23:51:41.529Z,99060.38
2022-11-29T23:54:09.353Z,99071.22
2022-11-29T23:56:36.915Z,99067.44
2022-11-29T23:59:04.931Z,99058.63
